CHINDWARA AIRFIELD

IN-0086 · 中央邦, 印度

使用的METAR站距离机场101 km。
罗盘
风向 的 风向 270°
风: 3 kt, 1 beaufort

添加一条跑道以查看侧风和逆风信息。

添置 跑道
0 ft 2.000 4.000 6.000 8.000 10.000
Cloud Cloud Cloud Cloud
SCT 1.000
Cloud Cloud Cloud Cloud
SCT 1.800
Cloud Cloud
FEW 3.000
Cloud Cloud Cloud Cloud Cloud Cloud Cloud Cloud
OVC 8.000
METAR VANP 171230Z 27003KT 1800 -TSRA SCT010 SCT018 FEW030CB OVC080 26/25 Q1002 NOSIG

METAR CHINDWARA AIRFIELD - IN-0086

CHINDWARA AIRFIELD是,印度中的小机场。 该机场位于纬度22,00000和经度78,93000。 这个机场没有ICAO代码,我们使用IN-0086作为参考。 机场在Mumbai FIR中。

该航空气象观测是针对Dr. Babasaheb Ambedkar International Airport在2024年7月17日 18:00, 当地时间进行的。

机场观察

风向为270°,速度为3 kt。

可见度为1,8 km。

有疏云,零星散落的云朵在1.000 ft的高度, 疏云,零星散落的云朵在1.800 ft的高度, 几云 积雨云在3.000 ft的高度 和 乌云密布在8.000 ft的高度。 破损或更高的上限为8.000 ft。

当前天气为光 雷暴 雨。 温度和风寒是26 °C。 露点为25 °C,相对湿度为94%。 海平面上的气压为1002 hPa (QNH)。

白天

今天,太阳从05:40升起,在19:00降落。 这适用于CHINDWARA AIRFIELD,世界夏令时可能有所不同。 当地时间与世界标准时间之间的时差为+5 小时 30 分钟。 夏令时目前正在进行中。

公司介绍

我们没有关于这个机场的公司信息。

体会

到Vliegles.nl去找飞行课程,跳伞和其他飞行体验。 浏览页面,了解CHINDWARA AIRFIELD附近所有可用的活动。 你也可以使用搜索功能来寻找你所在地附近的特定飞行课程、跳伞或其他飞行体验。

乌云

1.000 ft SCT 疏云,零星散落的云朵
1.800 ft SCT 疏云,零星散落的云朵
3.000 ft FEW 几云 积雨云
8.000 ft OVC 乌云密布

温度 & 天气

天气 光 雷暴 雨
温度 26 °C
露点 25 °C
相对湿度 94%
Kp-index 0 (0-9)

白天

日出
05:41
中午
12:20
日落
18:58 (49m)

小工具

你想在你的网站上有一个关于CHINDWARA AIRFIELD的当前航空天气(METAR)的小部件吗?

显示HTML代码
报告变更